Time;durP1;ratioP1;P1;durP2;ratioP2;P2;SDS_P1;SDS_P2;PMS_P1;PMS_P2;Temp;Humidity;BMP_temperature;BMP_pressure;BME280_temperature;BME280_humidity;BME280_pressure;Samples;Min_cycle;Max_cycle;Signal;HPM_P1;HPM_P2
2021/12/02 00:00:46;;;;;;;18.48;4.18;;;;;;;3.88;100.00;99569.16;4946439;29;20457;-79
2021/12/02 00:03:12;;;;;;;21.48;4.57;;;;;;;3.86;100.00;99559.28;4963471;29;20058;-80
2021/12/02 00:05:38;;;;;;;21.52;4.28;;;;;;;3.93;100.00;99581.38;4963802;28;20031;-80
2021/12/02 00:08:04;;;;;;;13.70;3.90;;;;;;;3.86;100.00;99559.28;4967711;28;20505;-80
2021/12/02 00:10:31;;;;;;;13.93;3.50;;;;;;;3.89;100.00;99565.44;4962581;28;20043;-80
2021/12/02 00:12:58;;;;;;;16.40;3.55;;;;;;;3.91;100.00;99558.09;4960386;29;20035;-80
2021/12/02 00:15:32;;;;;;;19.73;3.65;;;;;;;3.95;100.00;99567.72;4963266;28;20119;-80
2021/12/02 00:18:41;;;;;;;14.63;2.60;;;;;;;3.91;100.00;99569.78;4965331;28;20483;-80
2021/12/02 00:23:37;;;;;;;17.55;3.13;;;;;;;3.79;100.00;99568.84;4961390;28;20059;-81
2021/12/02 00:26:11;;;;;;;;;;;;;;;3.79;100.00;99573.41;4944971;29;20052;-80
2021/12/02 00:28:37;;;;;;;;;;;;;;;3.83;100.00;99581.16;4972665;28;19941;-80
2021/12/02 00:31:03;;;;;;;17.52;1.98;;;;;;;3.80;100.00;99578.66;4976063;28;20402;-80
2021/12/02 00:33:32;;;;;;;14.27;1.92;;;;;;;3.79;100.00;99576.09;4962061;28;20113;-79
2021/12/02 00:35:58;;;;;;;11.15;1.80;;;;;;;3.89;100.00;99588.00;4960936;29;20027;-80
2021/12/02 00:38:25;;;;;;;8.48;1.65;;;;;;;3.85;100.00;99576.53;4969473;28;20035;-80
2021/12/02 00:40:52;;;;;;;10.02;1.88;;;;;;;3.90;100.00;99584.28;4961484;28;20039;-80
2021/12/02 00:43:18;;;;;;;20.65;1.70;;;;;;;3.89;100.00;99588.00;4958009;28;20032;-80
2021/12/02 00:45:44;;;;;;;14.35;1.65;;;;;;;3.91;100.00;99583.31;4958111;29;20055;-80
2021/12/02 00:48:14;;;;;;;9.48;1.55;;;;;;;3.90;100.00;99581.59;4976507;28;20047;-79
2021/12/02 00:50:48;;;;;;;16.10;1.83;;;;;;;3.92;100.00;99592.31;4969898;28;20031;-80
2021/12/02 00:53:19;;;;;;;12.60;1.20;;;;;;;3.92;100.00;99589.59;4959503;28;20131;-80
2021/12/02 00:55:46;;;;;;;9.63;1.27;;;;;;;3.86;100.00;99583.66;4970164;28;20103;-79
2021/12/02 00:58:18;;;;;;;12.35;1.55;;;;;;;3.87;100.00;99573.72;4969950;28;20343;-80
2021/12/02 01:00:50;;;;;;;15.52;1.65;;;;;;;3.78;100.00;99561.69;4960350;28;20034;-80
2021/12/02 01:03:16;;;;;;;10.05;1.75;;;;;;;3.93;100.00;99580.50;4957448;29;20035;-80
2021/12/02 01:05:42;;;;;;;6.38;1.00;;;;;;;3.86;100.00;99567.41;4951131;29;20043;-80
2021/12/02 01:08:08;;;;;;;13.13;1.10;;;;;;;3.94;100.00;99587.66;4958609;28;20031;-80
2021/12/02 01:10:34;;;;;;;14.95;1.65;;;;;;;3.99;100.00;99580.06;4963929;28;20724;-80
2021/12/02 01:13:00;;;;;;;17.55;1.77;;;;;;;3.95;100.00;99575.84;4952627;28;20046;-80
2021/12/02 01:15:26;;;;;;;13.15;1.00;;;;;;;3.89;100.00;99576.28;4965780;28;20047;-80
2021/12/02 01:17:52;;;;;;;13.90;1.13;;;;;;;3.94;100.00;99579.53;4949058;29;20051;-80
2021/12/02 01:20:18;;;;;;;4.32;0.90;;;;;;;3.91;100.00;99586.03;4965011;28;20123;-80
2021/12/02 01:22:48;;;;;;;6.07;1.20;;;;;;;3.86;100.00;99580.94;4959789;28;20032;-80
2021/12/02 01:25:17;;;;;;;11.95;1.70;;;;;;;3.92;100.00;99586.91;4957841;29;20031;-80
2021/12/02 01:27:46;;;;;;;8.85;1.55;;;;;;;3.91;100.00;99586.03;4961769;28;20044;-80
2021/12/02 01:30:12;;;;;;;5.80;1.23;;;;;;;3.89;100.00;99584.41;4938021;29;20416;-80
2021/12/02 01:32:39;;;;;;;8.77;1.25;;;;;;;3.91;100.00;99587.88;4957189;28;20042;-80
2021/12/02 01:35:06;;;;;;;8.05;1.17;;;;;;;3.89;100.00;99597.94;4953050;28;20542;-80
2021/12/02 01:37:33;;;;;;;9.10;1.52;;;;;;;3.92;100.00;99598.59;4969616;28;20043;-80
2021/12/02 01:39:59;;;;;;;8.75;1.27;;;;;;;3.93;100.00;99602.16;4957422;29;20042;-79
2021/12/02 01:42:29;;;;;;;8.13;1.30;;;;;;;3.93;100.00;99611.16;4962245;28;20045;-79
2021/12/02 01:44:56;;;;;;;13.30;1.70;;;;;;;3.92;100.00;99605.84;4961622;28;20486;-79
2021/12/02 01:47:29;;;;;;;12.85;1.92;;;;;;;3.94;100.00;99603.91;4974726;28;20442;-80
2021/12/02 01:49:58;;;;;;;20.48;1.77;;;;;;;3.92;100.00;99603.13;4954465;28;20115;-79
2021/12/02 01:52:31;;;;;;;16.55;1.25;;;;;;;3.95;100.00;99608.34;4975321;28;20035;-79
2021/12/02 01:55:17;;;;;;;8.85;1.63;;;;;;;3.97;100.00;99614.53;4953010;28;20043;-80
2021/12/02 01:58:04;;;;;;;5.90;1.23;;;;;;;3.89;100.00;99601.53;4972466;28;20035;-79
2021/12/02 02:00:42;;;;;;;6.00;1.52;;;;;;;3.91;100.00;99604.13;4976983;28;20027;-80
2021/12/02 02:03:09;;;;;;;11.02;1.20;;;;;;;3.97;100.00;99606.41;4951001;28;20719;-79
2021/12/02 02:05:36;;;;;;;9.15;1.10;;;;;;;3.96;100.00;99610.94;4960205;28;20061;-79
2021/12/02 02:08:10;;;;;;;11.40;1.75;;;;;;;3.96;100.00;99610.94;4959843;28;20548;-79
2021/12/02 02:10:41;;;;;;;16.52;1.67;;;;;;;3.93;100.00;99608.44;4959202;28;20039;-79
2021/12/02 02:13:09;;;;;;;11.10;1.65;;;;;;;4.02;100.00;99621.34;4976202;28;20031;-79
2021/12/02 02:15:41;;;;;;;4.82;0.80;;;;;;;4.06;100.00;99624.69;4978515;28;20038;-79
2021/12/02 02:21:21;;;;;;;6.68;1.38;;;;;;;4.07;100.00;99622.84;4962586;28;20043;-78
2021/12/02 02:23:45;;;;;;;7.15;0.73;;;;;;;3.90;100.00;99615.94;4960430;29;20039;-79
2021/12/02 02:26:11;;;;;;;6.13;0.60;;;;;;;3.88;100.00;99626.00;4962485;29;20035;-79
2021/12/02 02:28:37;;;;;;;6.85;1.00;;;;;;;3.79;100.00;99628.41;4959369;28;20074;-79
2021/12/02 02:31:03;;;;;;;9.30;0.82;;;;;;;3.74;100.00;99619.75;4968230;28;20035;-79
2021/12/02 02:33:39;;;;;;;5.97;0.93;;;;;;;3.66;100.00;99608.59;4958952;29;20391;-79
2021/12/02 02:36:07;;;;;;;5.63;0.60;;;;;;;3.64;100.00;99610.50;4958269;28;20027;-80
2021/12/02 02:38:33;;;;;;;5.88;0.60;;;;;;;3.47;100.00;99598.19;4960534;28;20074;-79
2021/12/02 02:41:01;;;;;;;4.57;0.80;;;;;;;3.44;100.00;99618.22;4954704;29;20506;-79
2021/12/02 02:43:27;;;;;;;6.75;0.40;;;;;;;3.42;100.00;99613.88;4960605;28;20487;-78
2021/12/02 02:45:53;;;;;;;5.72;0.40;;;;;;;3.41;100.00;99617.53;4961737;28;20062;-79
2021/12/02 02:48:19;;;;;;;2.33;0.60;;;;;;;3.32;100.00;99608.25;4974582;28;20023;-79
2021/12/02 02:50:45;;;;;;;6.18;0.50;;;;;;;3.27;100.00;99600.44;4956404;28;20099;-79
2021/12/02 02:53:16;;;;;;;3.70;0.60;;;;;;;3.15;100.00;99611.22;4962608;28;20035;-79
2021/12/02 02:55:47;;;;;;;5.82;0.90;;;;;;;3.13;100.00;99606.81;4969923;28;20040;-79
2021/12/02 03:03:59;;;;;;;7.00;2.03;;;;;;;3.12;100.00;99605.06;4970064;28;20546;-79
2021/12/02 03:08:56;;;;;;;9.77;2.47;;;;;;;3.25;100.00;99602.38;4953020;28;20071;-79
2021/12/02 03:11:23;;;;;;;12.05;3.15;;;;;;;3.24;100.00;99597.09;4970959;28;20103;-79
2021/12/02 03:13:51;;;;;;;11.40;2.72;;;;;;;3.22;100.00;99597.19;4976308;28;20110;-79
2021/12/02 03:19:26;;;;;;;13.00;2.92;;;;;;;3.21;100.00;99603.56;4945606;29;20114;-79
2021/12/02 03:21:53;;;;;;;13.90;3.15;;;;;;;3.28;100.00;99604.00;4971753;28;20426;-79
2021/12/02 03:24:19;;;;;;;9.82;3.30;;;;;;;3.28;100.00;99595.88;4964489;28;20036;-79
2021/12/02 03:26:45;;;;;;;11.73;3.60;;;;;;;3.26;100.00;99600.53;4961683;28;20380;-78
2021/12/02 03:29:11;;;;;;;12.43;3.72;;;;;;;3.19;100.00;99601.94;4960178;29;20490;-79
2021/12/02 03:31:36;;;;;;;10.55;3.28;;;;;;;3.15;100.00;99598.59;4961068;28;20055;-79
2021/12/02 03:34:04;;;;;;;11.98;4.00;;;;;;;3.21;100.00;99608.13;4975852;28;20058;-79
2021/12/02 03:36:30;;;;;;;9.27;3.70;;;;;;;3.21;100.00;99619.78;4961475;29;20040;-79
2021/12/02 03:38:55;;;;;;;7.32;2.92;;;;;;;3.15;100.00;99611.22;4962638;29;20087;-79
2021/12/02 03:41:22;;;;;;;7.60;3.17;;;;;;;3.05;100.00;99609.19;4962365;28;20055;-79
2021/12/02 03:43:49;;;;;;;13.38;4.22;;;;;;;2.99;100.00;99609.59;4961775;28;20079;-78
2021/12/02 03:46:18;;;;;;;5.88;2.50;;;;;;;3.06;100.00;99615.44;4976543;28;20040;-79
2021/12/02 03:48:44;;;;;;;10.52;2.05;;;;;;;3.08;100.00;99624.31;4969042;28;20042;-78
2021/12/02 03:51:10;;;;;;;9.88;1.90;;;;;;;3.16;100.00;99623.78;4958444;28;20123;-79
2021/12/02 03:53:36;;;;;;;9.80;1.45;;;;;;;3.19;100.00;99623.59;4972403;28;20058;-79
2021/12/02 03:56:04;;;;;;;7.93;1.20;;;;;;;3.20;100.00;99631.59;4960934;28;20387;-79
2021/12/02 03:58:30;;;;;;;4.60;1.50;;;;;;;3.14;100.00;99621.19;4958819;28;20121;-79
2021/12/02 04:00:55;;;;;;;6.47;1.30;;;;;;;3.11;100.00;99615.97;4958157;28;20075;-78
2021/12/02 04:03:21;;;;;;;6.95;1.00;;;;;;;3.08;100.00;99624.31;4959918;29;20042;-78
2021/12/02 04:05:47;;;;;;;9.23;1.10;;;;;;;3.02;100.00;99612.09;4957182;28;20053;-79
2021/12/02 04:08:12;;;;;;;8.45;1.08;;;;;;;2.99;100.00;99616.84;4948445;29;20039;-79
2021/12/02 04:10:40;;;;;;;8.35;1.30;;;;;;;2.97;100.00;99625.06;4960398;28;20564;-79
2021/12/02 04:15:37;;;;;;;8.32;1.25;;;;;;;2.90;100.00;99602.09;4958470;28;20126;-78
2021/12/02 04:18:03;;;;;;;12.63;1.73;;;;;;;2.88;100.00;99604.03;4960611;29;20502;-81
2021/12/02 04:20:28;;;;;;;7.38;1.60;;;;;;;2.91;100.00;99610.09;4938552;29;20032;-79
2021/12/02 04:22:58;;;;;;;11.48;2.05;;;;;;;2.92;100.00;99611.84;4961647;29;20035;-80
2021/12/02 04:25:25;;;;;;;10.95;1.70;;;;;;;2.96;100.00;99617.91;4977762;28;20035;-80
2021/12/02 04:27:51;;;;;;;11.77;2.15;;;;;;;2.90;100.00;99610.19;4956688;28;20049;-81
2021/12/02 04:30:22;;;;;;;7.00;1.65;;;;;;;2.93;100.00;99615.41;4961541;29;20051;-81
2021/12/02 04:32:48;;;;;;;11.38;1.80;;;;;;;2.92;100.00;99610.97;4942708;29;20077;-81
2021/12/02 04:35:14;;;;;;;11.70;1.48;;;;;;;2.91;100.00;99610.09;4974390;28;20032;-79
2021/12/02 04:37:40;;;;;;;11.00;2.22;;;;;;;2.96;100.00;99617.03;4960695;28;20026;-78
2021/12/02 04:40:07;;;;;;;9.18;1.73;;;;;;;2.93;100.00;99608.16;4960580;28;20042;-79
2021/12/02 04:42:33;;;;;;;5.40;1.65;;;;;;;2.94;100.00;99617.16;4949462;29;20040;-79
2021/12/02 04:44:58;;;;;;;7.85;2.45;;;;;;;2.88;100.00;99613.00;4975168;28;20055;-79
2021/12/02 04:47:24;;;;;;;11.15;2.00;;;;;;;2.87;100.00;99622.09;4960105;28;20039;-79
2021/12/02 04:49:50;;;;;;;7.13;1.55;;;;;;;2.83;100.00;99627.81;4959344;29;20462;-79
2021/12/02 04:52:15;;;;;;;11.45;1.63;;;;;;;2.82;100.00;99628.75;4960618;28;20047;-79
2021/12/02 04:54:41;;;;;;;9.88;1.17;;;;;;;2.79;100.00;99624.44;4964722;28;20729;-79
2021/12/02 04:57:06;;;;;;;10.32;1.63;;;;;;;2.83;100.00;99630.50;4959301;28;20555;-79
2021/12/02 04:59:32;;;;;;;7.75;1.58;;;;;;;2.89;100.00;99630.09;4958296;29;20146;-80
2021/12/02 05:01:57;;;;;;;17.13;1.58;;;;;;;2.90;100.00;99642.63;4966856;28;20048;-80
2021/12/02 05:04:23;;;;;;;8.63;1.50;;;;;;;2.90;100.00;99642.63;4977382;28;20043;-80
2021/12/02 05:06:48;;;;;;;8.60;0.90;;;;;;;2.89;100.00;99643.63;4970342;28;20039;-80
2021/12/02 05:09:14;;;;;;;11.18;1.58;;;;;;;2.92;100.00;99649.69;4958857;28;20129;-80
2021/12/02 05:11:40;;;;;;;6.22;1.40;;;;;;;2.90;100.00;99637.22;4973794;28;20181;-80
2021/12/02 05:14:08;;;;;;;7.47;1.33;;;;;;;2.90;100.00;99645.34;4960532;29;20035;-80
2021/12/02 05:16:35;;;;;;;10.77;1.33;;;;;;;2.91;100.00;99645.25;4956309;29;20041;-80
2021/12/02 05:19:00;;;;;;;11.25;1.02;;;;;;;2.85;100.00;99647.50;4968399;28;20039;-80
2021/12/02 05:21:26;;;;;;;5.97;0.90;;;;;;;2.72;100.00;99631.22;4977149;28;20038;-80
2021/12/02 05:23:54;;;;;;;6.57;1.00;;;;;;;2.75;100.00;99652.63;4974609;28;20066;-80
2021/12/02 05:26:24;;;;;;;9.45;1.17;;;;;;;2.69;100.00;99663.84;4951955;29;20403;-80
2021/12/02 05:28:51;;;;;;;9.43;1.40;;;;;;;2.64;100.00;99647.97;4952909;29;20027;-80
2021/12/02 05:31:17;;;;;;;3.67;0.98;;;;;;;2.66;100.00;99651.41;4945815;29;20066;-80
2021/12/02 05:33:42;;;;;;;6.18;1.23;;;;;;;2.57;100.00;99650.19;4970936;28;20032;-79
2021/12/02 05:36:08;;;;;;;10.57;1.67;;;;;;;2.57;100.00;99647.50;4961934;29;20066;-79
2021/12/02 05:38:34;;;;;;;6.18;2.22;;;;;;;2.53;100.00;99659.47;4977160;28;20075;-79
2021/12/02 05:41:00;;;;;;;8.90;1.58;;;;;;;2.57;100.00;99661.00;4958270;29;20031;-80
2021/12/02 05:43:25;;;;;;;6.88;0.80;;;;;;;2.57;100.00;99668.22;4972640;28;20049;-81
2021/12/02 05:45:52;;;;;;;8.48;1.55;;;;;;;2.63;100.00;99675.09;4960134;28;20074;-82
2021/12/02 05:48:18;;;;;;;9.75;0.98;;;;;;;2.66;100.00;99675.75;4946336;29;20031;-82
2021/12/02 05:50:43;;;;;;;5.53;1.17;;;;;;;2.70;100.00;99677.25;4958395;28;20036;-80
2021/12/02 05:53:09;;;;;;;2.05;0.80;;;;;;;2.72;100.00;99667.25;4962046;28;20027;-82
2021/12/02 05:55:34;;;;;;;4.65;0.80;;;;;;;2.73;100.00;99665.38;4970241;28;20105;-81
2021/12/02 05:58:00;;;;;;;6.55;1.13;;;;;;;2.71;100.00;99661.94;4945532;28;20043;-82
2021/12/02 06:00:26;;;;;;;11.20;1.40;;;;;;;2.72;100.00;99672.63;4964116;28;20024;-82
2021/12/02 06:02:52;;;;;;;3.42;0.77;;;;;;;2.70;100.00;99662.88;4945698;28;20050;-80
2021/12/02 06:05:20;;;;;;;5.63;1.05;;;;;;;2.68;100.00;99667.53;4965809;28;20375;-81
2021/12/02 06:07:50;;;;;;;3.97;0.80;;;;;;;2.64;100.00;99683.09;4959611;29;20038;-81
2021/12/02 06:10:17;;;;;;;1.85;0.70;;;;;;;2.55;100.00;99673.72;4978342;28;20150;-81
2021/12/02 06:12:43;;;;;;;3.60;0.50;;;;;;;2.52;100.00;99667.66;4975399;28;20045;-80
2021/12/02 06:15:09;;;;;;;7.90;0.65;;;;;;;2.43;100.00;99679.94;4975221;28;20485;-80
2021/12/02 06:17:38;;;;;;;3.60;0.65;;;;;;;2.48;100.00;99687.75;4958038;28;20038;-79
2021/12/02 06:20:05;;;;;;;5.72;0.60;;;;;;;2.50;100.00;99692.06;4955372;28;20105;-79
2021/12/02 06:22:31;;;;;;;4.32;0.60;;;;;;;2.47;100.00;99704.91;4956388;28;20814;-79
2021/12/02 06:27:39;;;;;;;5.57;0.63;;;;;;;2.48;100.00;99714.75;4958769;29;20031;-78
2021/12/02 06:30:05;;;;;;;5.35;0.60;;;;;;;2.43;100.00;99716.88;4951915;29;20062;-78
2021/12/02 06:32:31;;;;;;;4.00;0.50;;;;;;;2.37;100.00;99727.09;4959552;28;20034;-80
2021/12/02 06:34:56;;;;;;;5.50;0.50;;;;;;;2.29;100.00;99718.63;4972869;28;20240;-80
2021/12/02 06:37:22;;;;;;;3.55;0.50;;;;;;;2.19;100.00;99722.88;4957210;28;20070;-77
2021/12/02 06:39:47;;;;;;;0.82;0.45;;;;;;;2.32;100.00;99715.72;4952340;28;20052;-78
2021/12/02 06:42:14;;;;;;;0.52;0.40;;;;;;;2.28;100.00;99726.81;4958183;28;20075;-78
2021/12/02 06:44:39;;;;;;;5.97;0.40;;;;;;;2.20;100.00;99720.06;4971854;28;20129;-78
2021/12/02 06:47:05;;;;;;;2.20;0.50;;;;;;;2.19;100.00;99710.22;4947478;28;20096;-78
2021/12/02 06:49:32;;;;;;;3.55;0.52;;;;;;;2.20;100.00;99711.13;4953699;28;20035;-78
2021/12/02 06:51:58;;;;;;;3.75;1.00;;;;;;;2.06;100.00;99714.66;4959055;28;20415;-77
2021/12/02 06:54:24;;;;;;;4.43;1.20;;;;;;;2.11;100.00;99733.28;4955413;28;20039;-78
2021/12/02 06:56:49;;;;;;;4.85;1.50;;;;;;;2.07;100.00;99731.75;4942074;29;20102;-78
2021/12/02 06:59:15;;;;;;;5.40;1.52;;;;;;;2.06;100.00;99735.41;4954131;29;20050;-78
2021/12/02 07:01:40;;;;;;;5.70;1.35;;;;;;;2.04;100.00;99749.00;4956376;28;20036;-78
2021/12/02 07:04:07;;;;;;;9.25;2.60;;;;;;;2.02;100.00;99732.91;4959488;28;20035;-78
2021/12/02 07:06:36;;;;;;;7.90;2.03;;;;;;;2.05;100.00;99730.97;4944623;28;20077;-77
2021/12/02 07:09:01;;;;;;;6.55;2.20;;;;;;;2.12;100.00;99746.69;4943262;29;20127;-78
2021/12/02 07:11:27;;;;;;;7.15;3.03;;;;;;;2.08;100.00;99755.06;4953677;28;20119;-78
2021/12/02 07:13:59;;;;;;;7.50;2.65;;;;;;;2.18;100.00;99762.50;4952836;29;20073;-78
2021/12/02 07:16:25;;;;;;;9.52;2.80;;;;;;;2.11;100.00;99757.59;4970720;28;20043;-78
2021/12/02 07:18:55;;;;;;;8.07;3.35;;;;;;;2.18;100.00;99758.94;4973262;28;20050;-78
2021/12/02 07:21:20;;;;;;;10.32;3.15;;;;;;;2.13;100.00;99759.25;4971538;28;20107;-77
2021/12/02 07:23:46;;;;;;;6.05;2.78;;;;;;;2.19;100.00;99779.56;4971881;28;20508;-77
2021/12/02 07:26:12;;;;;;;7.85;2.42;;;;;;;2.15;100.00;99761.84;4972515;28;20031;-78
2021/12/02 07:28:38;;;;;;;10.90;2.40;;;;;;;2.18;100.00;99767.91;4956361;28;20353;-78
2021/12/02 07:31:06;;;;;;;7.88;2.38;;;;;;;2.12;100.00;99756.63;4955081;29;20118;-78
2021/12/02 07:33:36;;;;;;;4.18;2.15;;;;;;;2.22;100.00;99773.13;4971113;28;20428;-78
2021/12/02 07:36:02;;;;;;;6.47;1.83;;;;;;;2.22;100.00;99779.41;4972900;28;20050;-77
2021/12/02 07:38:28;;;;;;;6.93;2.03;;;;;;;2.16;100.00;99774.38;4942428;29;20044;-78
2021/12/02 07:40:53;;;;;;;4.65;2.13;;;;;;;2.23;100.00;99780.25;4958539;28;20058;-78
2021/12/02 07:43:21;;;;;;;13.27;2.35;;;;;;;2.23;100.00;99774.84;4954624;29;20650;-78
2021/12/02 07:45:47;;;;;;;7.10;2.08;;;;;;;2.27;100.00;99774.56;4951908;29;20204;-78
2021/12/02 07:48:14;;;;;;;8.05;2.03;;;;;;;2.30;100.00;99768.13;4957954;28;20054;-78
2021/12/02 07:50:39;;;;;;;4.85;1.83;;;;;;;2.31;100.00;99770.72;4970880;28;20031;-78
2021/12/02 07:53:07;;;;;;;9.20;2.70;;;;;;;2.31;100.00;99778.84;4955909;28;20023;-77
2021/12/02 07:55:37;;;;;;;6.85;2.08;;;;;;;2.33;100.00;99782.28;4953473;28;20035;-77
2021/12/02 07:58:06;;;;;;;7.45;2.63;;;;;;;2.34;100.00;99784.00;4952827;28;20383;-78
2021/12/02 08:00:31;;;;;;;4.72;2.92;;;;;;;2.42;100.00;99788.09;4956739;28;20035;-77
2021/12/02 08:02:57;;;;;;;15.02;3.05;;;;;;;2.40;100.00;99790.88;4955606;29;20404;-78
2021/12/02 08:05:24;;;;;;;5.22;3.53;;;;;;;2.35;100.00;99788.47;4945918;29;20043;-77
2021/12/02 08:07:51;;;;;;;9.00;3.40;;;;;;;2.43;100.00;99797.91;4956983;29;20085;-77
2021/12/02 08:10:17;;;;;;;10.98;3.80;;;;;;;2.37;100.00;99797.31;4957372;28;20059;-78
2021/12/02 08:12:48;;;;;;;8.05;3.72;;;;;;;2.36;100.00;99808.22;4952318;29;20057;-78
2021/12/02 08:15:17;;;;;;;6.90;3.83;;;;;;;2.35;100.00;99801.97;4952462;29;20031;-78
2021/12/02 08:17:43;;;;;;;7.55;3.95;;;;;;;2.33;100.00;99808.44;4973589;28;20035;-80
2021/12/02 08:20:11;;;;;;;8.13;3.70;;;;;;;2.32;100.00;99809.41;4972897;28;20044;-80
2021/12/02 08:22:36;;;;;;;12.25;4.85;;;;;;;2.19;100.00;99799.34;4967249;28;20044;-79
2021/12/02 08:25:02;;;;;;;6.53;3.40;;;;;;;2.19;100.00;99799.34;4956541;28;20158;-80
2021/12/02 08:27:28;;;;;;;9.90;3.33;;;;;;;2.17;100.00;99816.63;4973920;28;20039;-80
2021/12/02 08:29:53;;;;;;;11.65;4.70;;;;;;;2.26;100.00;99834.06;4958748;29;20113;-81
2021/12/02 08:32:19;;;;;;;10.48;3.72;;;;;;;2.12;100.00;99816.03;4972862;28;20031;-81
2021/12/02 08:34:45;;;;;;;12.95;3.97;;;;;;;2.17;100.00;99827.41;4955503;29;20059;-80
2021/12/02 08:37:12;;;;;;;6.38;3.30;;;;;;;2.16;100.00;99831.06;4942141;29;20208;-80
2021/12/02 08:39:40;;;;;;;11.07;4.30;;;;;;;2.19;100.00;99847.09;4944583;29;20619;-80
2021/12/02 08:42:05;;;;;;;13.55;4.13;;;;;;;2.10;100.00;99839.53;4969819;28;20019;-79
2021/12/02 08:44:33;;;;;;;5.88;3.70;;;;;;;2.13;100.00;99842.03;4930717;29;20778;-80
2021/12/02 08:46:59;;;;;;;7.50;3.88;;;;;;;2.07;100.00;99827.09;4955489;28;20383;-79
2021/12/02 08:49:25;;;;;;;7.72;3.72;;;;;;;2.15;100.00;99846.41;4974630;28;20043;-79
2021/12/02 08:51:51;;;;;;;6.22;2.97;;;;;;;2.13;100.00;99856.44;4950298;29;20765;-80
2021/12/02 08:54:17;;;;;;;6.47;3.35;;;;;;;2.15;100.00;99859.03;4942335;28;20023;-81
2021/12/02 08:56:43;;;;;;;11.60;3.85;;;;;;;2.12;100.00;99854.69;4966973;28;20046;-80
2021/12/02 08:59:09;;;;;;;5.18;3.83;;;;;;;2.18;100.00;99846.22;4974551;28;20030;-81
2021/12/02 09:01:37;;;;;;;12.35;3.88;;;;;;;2.23;100.00;99851.34;4972815;28;20027;-80
2021/12/02 09:04:03;;;;;;;9.15;4.55;;;;;;;2.29;100.00;99861.75;4976014;28;20792;-80
2021/12/02 09:06:30;;;;;;;10.50;4.65;;;;;;;2.35;100.00;99866.78;4961696;28;20027;-80
2021/12/02 09:08:58;;;;;;;12.75;4.70;;;;;;;2.50;100.00;99872.22;4943629;28;20043;-81
2021/12/02 09:11:24;;;;;;;10.20;4.60;;;;;;;2.58;100.00;99878.03;4960541;28;20106;-80
2021/12/02 09:13:51;;;;;;;10.10;3.97;;;;;;;2.73;100.00;99877.06;4955945;29;20070;-81
2021/12/02 09:16:16;;;;;;;6.00;3.65;;;;;;;2.81;100.00;99878.44;4944310;28;20058;-80
2021/12/02 09:18:42;;;;;;;14.35;4.60;;;;;;;3.02;100.00;99865.38;4955652;28;20031;-81
2021/12/02 09:21:08;;;;;;;10.23;4.10;;;;;;;3.15;100.00;99892.50;4945453;29;20051;-79
2021/12/02 09:23:35;;;;;;;6.90;4.15;;;;;;;3.13;100.00;99885.38;4945546;29;20047;-81
2021/12/02 09:26:00;;;;;;;7.80;4.03;;;;;;;3.15;100.00;99904.19;4959659;29;20043;-81
2021/12/02 09:28:26;;;;;;;12.80;4.20;;;;;;;3.41;100.00;99899.81;4974164;28;20376;-80
2021/12/02 09:30:52;;;;;;;7.20;3.75;;;;;;;3.48;100.00;99903.84;4958933;28;20110;-81
2021/12/02 09:33:18;;;;;;;5.55;3.30;;;;;;;3.45;100.00;99904.03;4951522;28;20062;-80
2021/12/02 09:35:44;;;;;;;6.63;3.05;;;;;;;3.55;100.00;99915.13;4957074;28;20431;-80
2021/12/02 09:38:10;;;;;;;7.28;2.92;;;;;;;3.58;100.00;99911.38;4973725;28;20054;-81
2021/12/02 09:40:37;;;;;;;6.05;2.78;;;;;;;3.48;100.00;99909.25;4957964;29;20027;-80
2021/12/02 09:43:03;;;;;;;6.18;2.63;;;;;;;3.37;100.00;99914.50;4973367;28;20048;-79
2021/12/02 09:45:29;;;;;;;5.47;2.22;;;;;;;3.18;100.00;99916.63;4943368;29;20106;-81
2021/12/02 09:47:55;;;;;;;9.15;1.75;;;;;;;2.97;100.00;99908.94;4960112;28;20047;-81
2021/12/02 09:50:30;;;;;;;7.55;2.08;;;;;;;3.07;100.00;99931.72;4954805;28;20038;-80
2021/12/02 09:53:05;;;;;;;6.85;1.75;;;;;;;3.13;100.00;99917.81;4945462;28;20044;-79
2021/12/02 09:58:08;;;;;;;9.77;1.50;;;;;;;3.17;100.00;99932.00;4950642;29;20043;-80
2021/12/02 10:06:00;;;;;;;3.42;1.27;;;;;;;3.20;100.00;99929.13;4974848;28;20117;-80
2021/12/02 10:08:31;;;;;;;13.45;2.08;;;;;;;3.08;100.00;99928.06;4949088;29;20039;-80
2021/12/02 10:10:59;;;;;;;6.15;1.30;;;;;;;3.02;100.00;99925.72;4958892;29;20023;-80
2021/12/02 10:13:32;;;;;;;12.63;1.63;;;;;;;3.02;100.00;99931.16;4958055;28;20046;-80
2021/12/02 10:16:35;;;;;;;;;;;;;;;3.04;100.00;99937.31;4972094;28;20448;-80
2021/12/02 10:19:10;;;;;;;7.90;1.50;;;;;;;2.99;100.00;99920.50;4949833;29;19925;-80
2021/12/02 10:21:43;;;;;;;14.85;1.70;;;;;;;3.06;100.00;99937.22;4962226;28;20028;-80
2021/12/02 10:24:15;;;;;;;13.40;1.40;;;;;;;3.01;100.00;99925.81;4966479;28;20090;-80
2021/12/02 10:26:49;;;;;;;9.77;1.63;;;;;;;3.01;100.00;99907.75;4959246;28;20043;-80
2021/12/02 10:29:20;;;;;;;5.95;1.50;;;;;;;3.33;100.00;99917.50;4944417;29;20035;-81
2021/12/02 10:32:03;;;;;;;11.38;1.80;;;;;;;3.31;100.00;99931.13;4961143;28;20114;-81
2021/12/02 10:34:29;;;;;;;4.68;1.50;;;;;;;3.35;100.00;99931.81;4977173;28;20058;-81
2021/12/02 10:36:58;;;;;;;11.23;1.63;;;;;;;3.52;100.00;99934.28;4962769;29;20035;-81
2021/12/02 10:39:25;;;;;;;5.55;2.25;;;;;;;3.62;100.00;99934.53;4963476;28;20099;-81
2021/12/02 10:42:20;;;;;;;5.10;1.48;;;;;;;3.96;100.00;99932.34;4964492;28;20072;-81
2021/12/02 10:44:46;;;;;;;4.95;1.67;;;;;;;3.90;100.00;99921.91;4962298;29;20061;-81
2021/12/02 10:47:14;;;;;;;5.65;1.55;;;;;;;4.04;100.00;99933.53;4954819;29;20039;-81
2021/12/02 10:49:47;;;;;;;7.50;2.00;;;;;;;4.15;100.00;99932.84;4973544;28;20035;-81
2021/12/02 10:52:20;;;;;;;12.88;2.58;;;;;;;4.03;100.00;99939.94;4975719;28;20494;-81
2021/12/02 10:54:51;;;;;;;9.88;2.47;;;;;;;4.25;100.00;99938.50;4983441;28;20036;-80
2021/12/02 10:57:19;;;;;;;9.88;1.88;;;;;;;4.24;100.00;99942.19;4974207;28;20043;-81
2021/12/02 10:59:51;;;;;;;4.80;2.08;;;;;;;4.22;100.00;99939.56;4962514;28;20038;-81
2021/12/02 11:02:35;;;;;;;5.70;1.88;;;;;;;4.32;100.00;99947.94;4959247;29;20032;-81
2021/12/02 11:05:24;;;;;;;11.73;1.50;;;;;;;4.58;100.00;99943.44;4973231;28;20507;-80
2021/12/02 11:08:04;;;;;;;2.85;1.40;;;;;;;4.64;100.00;99941.28;4954973;29;20487;-81
2021/12/02 11:10:47;;;;;;;5.30;1.70;;;;;;;4.60;100.00;99952.34;4961970;28;20050;-80
2021/12/02 11:13:25;;;;;;;6.43;1.40;;;;;;;4.29;100.00;99956.28;4960798;29;20491;-81
2021/12/02 11:15:51;;;;;;;6.45;1.35;;;;;;;4.18;100.00;99959.72;4961075;28;20047;-80
2021/12/02 11:18:17;;;;;;;4.72;1.25;;;;;;;3.83;100.00;99953.94;4958936;29;20035;-80
2021/12/02 11:20:47;;;;;;;3.20;1.38;;;;;;;3.65;100.00;99961.41;4962088;28;20050;-80
2021/12/02 11:23:17;;;;;;;10.18;1.60;;;;;;;3.61;100.00;99963.47;4961675;28;20035;-80
2021/12/02 11:26:06;;;;;;;8.75;1.67;;;;;;;3.72;100.00;99956.47;4960422;29;20695;-81
2021/12/02 11:28:34;;;;;;;9.45;2.00;;;;;;;3.73;100.00;99952.81;4943145;29;20039;-79
2021/12/02 11:31:13;;;;;;;6.97;1.95;;;;;;;3.58;100.00;99944.72;4976256;28;20506;-80
2021/12/02 11:33:41;;;;;;;4.20;1.85;;;;;;;3.54;100.00;99963.94;4957371;29;20186;-79
2021/12/02 11:36:19;;;;;;;4.85;1.20;;;;;;;3.44;100.00;99971.78;4961537;28;20095;-80
2021/12/02 11:38:45;;;;;;;8.50;1.77;;;;;;;3.44;100.00;99959.16;4957530;29;20034;-80
2021/12/02 11:41:11;;;;;;;3.13;1.05;;;;;;;3.50;100.00;99964.13;4960177;29;20468;-81
2021/12/02 11:43:39;;;;;;;4.22;1.35;;;;;;;3.63;100.00;99971.47;4965645;29;20055;-80
2021/12/02 11:46:08;;;;;;;2.33;0.80;;;;;;;3.55;100.00;99971.09;4956059;28;20055;-80
2021/12/02 11:48:39;;;;;;;7.10;0.90;;;;;;;3.53;100.00;99964.94;4945075;28;20111;-80
2021/12/02 11:51:12;;;;;;;2.72;1.00;;;;;;;3.53;100.00;99965.78;4941679;29;20089;-80
2021/12/02 11:53:37;;;;;;;8.23;1.70;;;;;;;3.61;100.00;99959.91;4960064;28;20086;-81
2021/12/02 11:56:12;;;;;;;2.85;1.30;;;;;;;3.71;100.00;99963.72;4957038;28;20483;-80
2021/12/02 11:58:38;;;;;;;1.60;0.70;;;;;;;3.51;100.00;99967.75;4971718;28;20114;-81
2021/12/02 12:01:04;;;;;;;3.72;0.90;;;;;;;3.45;100.00;99963.56;4938881;29;20114;-80
2021/12/02 12:03:43;;;;;;;1.83;0.60;;;;;;;3.33;100.00;99947.25;4971684;28;20031;-79
2021/12/02 12:06:13;;;;;;;3.13;0.77;;;;;;;3.48;100.00;99986.88;4953204;29;20023;-80